Nisula, MI

9:10 PM EDT on August 29, 2014 (GMT -0400)
Otter Lake | Change Station
CLOSE
Current Station
Personal Weather Station
Location: Tapiola, MI
Elevation: 604 ft
Nearby Weather Stations

Elev 604 ft 46.91 °N, 88.59 °W | Updated 2 seconds ago

Rain
Rain
63.6 °F
Feels Like 63.6 °F
N
0.0
Wind Variable Wind from NE
Gusts 0.0 mph

Today
High -- | Low -- °F
--% Chance of Precip.
Yesterday
High -- | Low -- °F
Precip. -- in
7:11 AM 8:40 PM
Waxing Crescent, 18% visible
Pressure 29.84 in
Visibility 5.0 miles
Clouds Scattered Clouds 4300 ft
Mostly Cloudy 9000 ft
Overcast 11000 ft
Dew Point 62 °F
Humidity 96%
Rainfall 0.56 in
Snow Depth Not available.
UV 0 out of 12
Pollen .40 out of 12
Air Quality Not available.
Flu Activity Not available.
METAR KLNL 300055Z AUTO 20005KT 5SM -TSRA SCT043 BKN090 OVC110 20/19 A2984 RMK AO2 LTG DSNT E THRU SW P0002 T01960188

More Conditions Fewer Conditions

Pressure 29.84 in
Visibility 5.0 miles
Clouds Scattered Clouds 4300 ft
Mostly Cloudy 9000 ft
Overcast 11000 ft
Dew Point 62 °F
Humidity 96%
Rainfall 0.56 in
Snow Depth Not available.
UV 0 out of 12
Pollen .40 out of 12
Air Quality Not available.
Flu Activity Not available.
METAR KLNL 300055Z AUTO 20005KT 5SM -TSRA SCT043 BKN090 OVC110 20/19 A2984 RMK AO2 LTG DSNT E THRU SW P0002 T01960188

More Conditions Fewer Conditions

10-Day Weather Forecast

Almanac

Astronomy

Aug. 29, 2014 Rise Set
Actual Time 7:11 AM EDT 8:40 PM EDT
Civil Twilight 6:39 AM EDT 9:11 PM EDT
Nautical Twilight 6:01 AM EDT 9:49 PM EDT
Astronomical Twilight 5:20 AM EDT 10:30 PM EDT
Moon 11:17 AM EDT (8/29) 10:20 PM EDT (8/29)
Length of Visible Light 14h 31m
Length of Day
13h 28m
Tomorrow will be 3m 10s shorter.
Waxing Crescent, 18% of the Moon is Illuminated
Today
Waxing Crescent
Sep 2
First Quarter
Sep 8
Full
Sep 15
Last Quarter
Sep 24
New

Today's Extremes

State Highs State Lows

Community

WunderPhotos

Upload Photos

1,748,395 photos uploaded!

Nearby

Snow Depth

Station Depth Elevation
No new snow has been reported.

Earthquake Activity

City Distance Mag. Time & Date
No recent earthquake activity has been reported nearby.
Minimum magnitude displayed is 2.5.

Coastal Water Temperatures

Place Temperature
No Stations Reporting

Nearby Weather Stations